x

South Santa Rosa Is. Ca (46069) Wave Buoy

10:50 - Sun 23rd Apr 2017 All times are PDT. -7 hours from GMT.

  • Sig Wave height 11.8ft
  • Swell Direction
  • Peak Period 14s
  • Average Period 7s
  • Wind
    31mph, 36mph gusts
  • Sea Temp 55°f
  • Luft Temp 55°f
  • Sea Pressure 1012.5mb
  • South Santa Rosa Is. Ca
  • South Santa Rosa Is. Ca

More Historic Weather Station data

Upgrade to MSW Pro to gain access to the past 30 days of data for over 8000 Wavebouys and Weather Stations around the globe.

Join Pro

Comparision Forecast

View Surf forecast
   
So 04/23 10:50 12ft 14s 7s 31 36 mph 1012.5mb 55f 55f
9:50 12ft 8s 7s 27 34 mph 1012.9mb 55f 55f
8:50 11.5ft 8s 7s 29 38 mph 1012mb 55f 55f
7:50 12ft 13s 7s 31 38 mph 1011.1mb 55f 55f
6:50 11.5ft 8s 7s 31 40 mph 1011.4mb 55f 56f
5:50 11ft 13s 7s 31 38 mph 1011.6mb 55f 56f
4:50 10.5ft 14s 7s 31 40 mph 1011.8mb 55f 56f
3:50 11.5ft 13s 7s 31 38 mph 1012.3mb 55f 56f
2:50 10ft 13s 7s 31 38 mph 1012.8mb 55f 56f
1:50 10.5ft 8s 7s 29 36 mph 1013.1mb 55f 56f
12:50 10ft 8s 6s 29 38 mph 1013.2mb 56f 55f
11:50 10ft 8s 6s 31 40 mph 1013mb 56f 56f
10:50 9.5ft 8s 6s 29 38 mph 1013mb 56f 56f
9:50 10ft 8s 6s 29 36 mph 1012.8mb 56f 55f
8:50 10ft 7s 6s 29 36 mph 1012.4mb 56f 55f
7:50 9ft 7s 6s 31 38 mph 1012.2mb 56f 55f
6:50 8ft 7s 6s 29 38 mph 1011.6mb 56f 55f
5:50 7.5ft 6s 6s 29 36 mph 1010.7mb 56f 55f
4:50 7ft 6s 5s 29 36 mph 1010.8mb 56f 55f
3:50 6ft 16s 6s 27 34 mph 1011mb 56f 55f
2:50 6ft 16s 5s 27 34 mph 1011.2mb 56f 55f
1:50 6.5ft 15s 6s 27 34 mph 1011.8mb 56f 56f
12:50 5.5ft 6s 5s 25 31 mph 1012.1mb 56f 56f
Sa 04/22 11:50 6ft 6s 5s 25 29 mph 1012.2mb 56f 56f
10:50 6ft 16s 5s 27 31 mph 1012.5mb 56f 56f
9:50 6ft 6s 5s 25 31 mph 1012.5mb 56f 56f
8:50 6ft 6s 5s 22 27 mph 1011.8mb 56f 56f
7:50 7ft 7s 5s 25 29 mph 1011.6mb 56f 56f
6:50 7ft 7s 6s 25 29 mph 1011.9mb 56f 57f
4:50 7ft 7s 6s 27 34 mph 1012mb 56f 57f
3:50 7ft 6s 5s 25 31 mph 1012.2mb 56f 58f
2:50 6.5ft 16s 6s 27 31 mph 1012.5mb 56f 58f
1:50 6.5ft 16s 6s 22 27 mph 1012.7mb 56f 58f
12:50 6.5ft 16s 6s 22 27 mph 1012.7mb 56f 58f
11:50 7ft 8s 6s 20 25 mph 1013.2mb 55f 57f
10:50 7.5ft 16s 6s 22 27 mph 1013.2mb 55f 57f
9:50 8ft 7s 6s 20 27 mph 1012.9mb 55f 57f
8:50 8ft 6s 6s 25 29 mph 1012.2mb 55f 57f
7:50 8ft 11s 6s 22 27 mph 1012.6mb 55f 57f
6:50 8ft 11s 6s 22 27 mph 1012mb 55f 56f
4:50 8ft 11s 6s 22 27 mph 1011.6mb 55f 56f
3:50 9ft 11s 7s 25 29 mph 1011.8mb 55f 56f
2:50 8.5ft 12s 7s 22 27 mph 1011.9mb 55f 56f
1:50 9ft 11s 7s 22 29 mph 1012mb 55f 57f
12:50 8ft 12s 7s 25 27 mph 1012.1mb 55f 57f
Fr 04/21 11:50 8ft 11s 6s 22 27 mph 1012mb 55f 57f
10:50 8.5ft 12s 7s 18 25 mph 1012.7mb 55f 57f
9:50 9ft 13s 7s 22 27 mph 1012.4mb 55f 57f
8:50 9ft 12s 7s 20 25 mph 1011.9mb 55f 57f
7:50 8ft 13s 7s 18 22 mph 1011.3mb 55f 57f
6:50 8ft 12s 7s 22 27 mph 1011.3mb 56f 57f
4:50 9ft 13s 8s 22 27 mph 1012mb 56f 58f
3:50 10ft 13s 8s 20 22 mph 1012.5mb 56f 58f
2:50 9ft 12s 7s 20 22 mph 1013.1mb 56f 58f
1:50 9.5ft 14s 8s 18 22 mph 1013.8mb 55f 58f
12:50 10.5ft 12s 8s 20 25 mph 1013.8mb 55f 58f
11:50 10ft 14s 8s 20 25 mph 1014.3mb 55f 58f
10:50 11.5ft 13s 8s 22 25 mph 1014.3mb 55f 57f
9:50 11.5ft 14s 8s 20 25 mph 1013.7mb 55f 57f
8:50 11.5ft 12s 8s 20 25 mph 1013.9mb 55f 57f
7:50 12ft 11s 8s 20 25 mph 1014.2mb 55f 57f
5:50 12ft 13s 8s 29 36 mph 1012.9mb 55f 58f
4:50 12ft 13s 8s 29 36 mph 1013.3mb 55f 58f
3:50 11ft 13s 7s 29 36 mph 1013.6mb 55f 58f
2:50 10.5ft 12s 7s 29 34 mph 1014.1mb 55f 58f
1:50 12ft 13s 7s 29 34 mph 1014.9mb 55f 58f
12:50 12ft 13s 7s 25 34 mph 1015.8mb 55f 57f
Do 04/20 11:50 11.5ft 14s 7s 27 34 mph 1016.1mb 55f 56f
10:50 12ft 14s 7s 31 38 mph 1016.3mb 55f 56f
9:50 11.5ft 13s 7s 31 38 mph 1017mb 55f 57f
8:50 11.5ft 14s 7s 34 43 mph 1016.7mb 56f 57f
7:50 11ft 15s 7s 34 38 mph 1016.3mb 56f 57f
6:50 10.5ft 15s 7s 31 38 mph 1017mb 56f 57f
5:50 10.5ft 14s 7s 29 38 mph 1017.3mb 56f 58f
4:50 11ft 13s 8s 29 34 mph 1017.8mb 56f 58f
3:50 10ft 13s 7s 27 34 mph 1018.3mb 56f 57f
2:50 11ft 14s 8s 25 29 mph 1019.3mb 56f 57f
1:50 11ft 14s 8s 27 34 mph 1019.5mb 56f 57f
12:50 10.5ft 12s 7s 27 31 mph 1020.1mb 56f 57f
11:50 10.5ft 14s 7s 27 34 mph 1020.6mb 56f 56f
10:50 10ft 12s 7s 27 34 mph 1020.7mb 56f 56f
9:50 9.5ft 12s 7s 29 34 mph 1020.4mb 55f 55f
8:50 9ft 13s 7s 27 34 mph 1020.5mb 55f 55f
7:50 9ft 13s 7s 27 36 mph 1020.2mb 55f 56f